Terminal Aerodrome Forecast
Issued by NWS

Home | Current Version | Previous Version | Text Only | Print | Product List | Glossary On
Versions: 1 2 3 4 5 6 7 8 9 10 11 12 13 14 15 16 17 18 19
000
FTAK31 PAFA 251132
TAFATA
TAF
PATA 251132Z 2512/2612 08004KT P6SM -SHSN FEW005 OVC021
     FM251400 08004KT P6SM -SHSN SCT021 BKN045
     FM252100 09008KT P6SM -SHSN FEW015 SCT025 OVC050
     FM260400 10005KT P6SM SCT025 SCT050 OVC100=

USA.gov is the U.S. government's official web portal to all federal, state and local government web resources and services.